Time;durP1;ratioP1;P1;durP2;ratioP2;P2;SDS_P1;SDS_P2;PMS_P1;PMS_P2;Temp;Humidity;BMP_temperature;BMP_pressure;BME280_temperature;BME280_humidity;BME280_pressure;Samples;Min_cycle;Max_cycle;Signal;HPM_P1;HPM_P2
2022/04/22 00:00:23;;;;;;;5.05;2.17;;;18.00;54.80;;;;;;5014406;28;20053;-69
2022/04/22 00:02:50;;;;;;;3.17;2.20;;;17.60;54.70;;;;;;5014493;28;20092;-70
2022/04/22 00:05:17;;;;;;;4.32;2.25;;;17.40;54.80;;;;;;5032360;28;20059;-69
2022/04/22 00:07:44;;;;;;;3.17;2.35;;;17.40;55.00;;;;;;5032468;28;20042;-69
2022/04/22 00:10:11;;;;;;;3.60;2.38;;;17.20;54.90;;;;;;5032092;28;20079;-69
2022/04/22 00:12:38;;;;;;;3.10;2.40;;;17.30;55.00;;;;;;5014985;28;20497;-69
2022/04/22 00:15:07;;;;;;;5.75;2.47;;;16.60;54.20;;;;;;5014348;28;20061;-70
2022/04/22 00:17:34;;;;;;;3.85;2.42;;;16.80;54.70;;;;;;5029147;28;20077;-70
2022/04/22 00:20:00;;;;;;;3.22;2.40;;;17.30;55.10;;;;;;5014466;28;20059;-69
2022/04/22 00:22:27;;;;;;;4.72;2.15;;;18.10;55.20;;;;;;5013901;28;20049;-69
2022/04/22 00:24:54;;;;;;;3.88;2.20;;;17.10;54.80;;;;;;5014387;28;20049;-69
2022/04/22 00:27:21;;;;;;;5.35;2.25;;;17.00;50.00;;;;;;5014831;28;20049;-69
2022/04/22 00:29:48;;;;;;;3.42;2.42;;;;;;;;;;5032040;28;20044;-69
2022/04/22 00:32:16;;;;;;;4.53;2.33;;;17.10;55.00;;;;;;5014368;28;20051;-70
2022/04/22 00:34:43;;;;;;;2.85;2.05;;;17.30;55.10;;;;;;5011895;28;20056;-69
2022/04/22 00:37:09;;;;;;;3.88;2.50;;;17.30;51.90;;;;;;5014355;28;20509;-70
2022/04/22 00:39:36;;;;;;;3.33;2.50;;;17.10;55.10;;;;;;5017270;28;20053;-70
2022/04/22 00:42:08;;;;;;;3.95;2.25;;;17.40;55.00;;;;;;5031845;28;20047;-69
2022/04/22 00:44:35;;;;;;;3.72;2.45;;;17.00;54.90;;;;;;5028848;28;20049;-69
2022/04/22 00:47:01;;;;;;;4.57;2.40;;;17.50;55.10;;;;;;5014335;28;20041;-69
2022/04/22 00:49:30;;;;;;;3.40;2.50;;;17.10;49.40;;;;;;5013818;28;20402;-69
2022/04/22 00:51:57;;;;;;;3.72;2.28;;;16.40;54.50;;;;;;5009042;28;20053;-69
2022/04/22 00:54:24;;;;;;;3.55;2.35;;;16.70;54.70;;;;;;5014165;28;20046;-69
2022/04/22 00:56:50;;;;;;;4.30;2.67;;;16.40;54.90;;;;;;5017809;28;20045;-69
2022/04/22 00:59:17;;;;;;;3.90;2.42;;;17.00;54.90;;;;;;5015452;28;20053;-69
2022/04/22 01:01:44;;;;;;;3.80;2.40;;;17.20;55.40;;;;;;5013608;28;20049;-69
2022/04/22 01:09:51;;;;;;;4.35;2.38;;;17.10;55.20;;;;;;5007320;28;20046;-69
2022/04/22 01:12:17;;;;;;;3.83;2.35;;;17.10;55.40;;;;;;5012280;28;20077;-69
2022/04/22 01:14:44;;;;;;;4.97;2.47;;;17.40;55.50;;;;;;5013845;28;20057;-70
2022/04/22 01:17:11;;;;;;;4.47;2.35;;;17.10;55.10;;;;;;5013796;28;20096;-70
2022/04/22 01:19:38;;;;;;;4.30;2.28;;;17.00;55.10;;;;;;5017649;28;20059;-70
2022/04/22 01:22:07;;;;;;;3.17;2.38;;;16.90;53.90;;;;;;5013105;28;20057;-69
2022/04/22 01:24:34;;;;;;;3.47;2.38;;;17.40;55.80;;;;;;5014008;28;20485;-69
2022/04/22 01:27:01;;;;;;;4.03;2.42;;;17.00;49.60;;;;;;5013891;28;20054;-70
2022/04/22 01:29:28;;;;;;;4.00;2.72;;;17.10;55.20;;;;;;5013760;28;20066;-69
2022/04/22 01:31:55;;;;;;;4.75;2.70;;;17.00;55.20;;;;;;5013950;28;20045;-69
2022/04/22 01:34:21;;;;;;;4.43;2.58;;;17.00;55.30;;;;;;5013710;28;20063;-69
2022/04/22 01:36:48;;;;;;;6.05;2.80;;;17.00;55.30;;;;;;5013769;28;20493;-69
2022/04/22 01:39:16;;;;;;;4.70;2.38;;;16.90;49.60;;;;;;5013115;28;20056;-69
2022/04/22 01:41:43;;;;;;;3.70;2.30;;;;;;;;;;5013471;28;20050;-69
2022/04/22 01:44:10;;;;;;;4.47;2.15;;;16.60;55.20;;;;;;5013756;28;20062;-69
2022/04/22 01:46:36;;;;;;;3.63;2.50;;;16.90;55.40;;;;;;5031262;28;20512;-69
2022/04/22 01:49:03;;;;;;;3.33;2.00;;;17.10;51.30;;;;;;5017353;28;20064;-69
2022/04/22 01:51:30;;;;;;;3.72;2.40;;;17.00;55.30;;;;;;5026735;28;20045;-69
2022/04/22 01:53:57;;;;;;;3.28;2.40;;;17.00;55.80;;;;;;5017637;28;20065;-69
2022/04/22 01:56:25;;;;;;;3.58;2.30;;;16.00;55.00;;;;;;5016885;28;20417;-69
2022/04/22 01:58:52;;;;;;;2.92;2.10;;;17.00;51.60;;;;;;5017282;28;20059;-69
2022/04/22 02:01:19;;;;;;;5.82;2.65;;;16.10;55.00;;;;;;5017239;28;20057;-69
2022/04/22 02:03:46;;;;;;;3.80;2.40;;;16.80;55.70;;;;;;5016560;28;20042;-70
2022/04/22 02:06:12;;;;;;;3.15;2.20;;;16.80;55.20;;;;;;5017064;28;20064;-69
2022/04/22 02:08:39;;;;;;;3.80;2.40;;;;;;;;;;5017393;28;20397;-69
2022/04/22 02:11:06;;;;;;;3.33;2.25;;;;;;;;;;5018854;28;20132;-69
2022/04/22 02:13:36;;;;;;;4.40;2.33;;;16.60;55.40;;;;;;5034495;28;20397;-69
2022/04/22 02:16:04;;;;;;;3.97;2.15;;;16.80;55.70;;;;;;5017044;28;20061;-69
2022/04/22 02:18:34;;;;;;;3.88;2.50;;;16.40;55.50;;;;;;5009206;28;20057;-69
2022/04/22 02:21:00;;;;;;;2.65;2.15;;;16.70;55.70;;;;;;5017404;28;20483;-71
2022/04/22 02:23:27;;;;;;;3.88;2.35;;;17.20;55.80;;;;;;5016721;28;20045;-71
2022/04/22 02:25:54;;;;;;;3.00;2.20;;;16.70;55.30;;;;;;5034495;28;20049;-71
2022/04/22 02:28:31;;;;;;;2.65;1.92;;;16.70;55.40;;;;;;5016778;28;20045;-71
2022/04/22 02:31:00;;;;;;;3.03;2.15;;;17.10;49.90;;;;;;5016365;28;20056;-71
2022/04/22 02:33:27;;;;;;;4.57;2.45;;;16.60;55.70;;;;;;5016672;28;20462;-70
2022/04/22 02:35:56;;;;;;;5.68;2.30;;;16.70;55.50;;;;;;5016525;28;20053;-69
2022/04/22 02:38:23;;;;;;;4.93;2.45;;;16.00;55.10;;;;;;5034119;28;20047;-70
2022/04/22 02:46:19;;;;;;;3.78;2.63;;;16.50;55.80;;;;;;5016120;28;20136;-69
2022/04/22 02:48:46;;;;;;;3.00;2.20;;;16.40;55.70;;;;;;5039202;28;20056;-69
2022/04/22 02:51:13;;;;;;;4.93;2.38;;;15.70;55.10;;;;;;5033731;28;20142;-70
2022/04/22 02:53:39;;;;;;;3.53;2.28;;;16.50;55.70;;;;;;5016250;28;20042;-69
2022/04/22 02:56:07;;;;;;;3.17;2.30;;;16.60;55.60;;;;;;5034774;28;20491;-70
2022/04/22 02:58:34;;;;;;;3.55;2.17;;;16.50;55.50;;;;;;5014866;28;20057;-69
2022/04/22 03:01:02;;;;;;;3.53;1.98;;;16.70;55.80;;;;;;5015689;28;20051;-69
2022/04/22 03:03:30;;;;;;;2.92;1.90;;;17.30;55.90;;;;;;5015562;28;20072;-69
2022/04/22 03:05:57;;;;;;;3.08;2.00;;;16.40;55.30;;;;;;5016012;28;20049;-69
2022/04/22 03:08:24;;;;;;;3.00;2.05;;;16.60;51.60;;;;;;5016262;28;20377;-70
2022/04/22 03:10:51;;;;;;;3.80;2.33;;;16.60;55.50;;;;;;5033420;28;20055;-69
2022/04/22 03:13:17;;;;;;;3.38;2.08;;;16.30;55.80;;;;;;5016008;28;20071;-70
2022/04/22 03:15:44;;;;;;;3.38;2.00;;;16.40;55.40;;;;;;5015750;28;20507;-69
2022/04/22 03:18:12;;;;;;;2.90;2.00;;;16.00;55.50;;;;;;5033020;28;20071;-70
2022/04/22 03:20:40;;;;;;;3.80;2.28;;;16.50;55.60;;;;;;5015619;28;20049;-69
2022/04/22 03:23:07;;;;;;;2.85;1.88;;;16.20;55.70;;;;;;5015594;28;20438;-69
2022/04/22 03:25:34;;;;;;;3.40;2.20;;;16.50;53.10;;;;;;5015684;28;20045;-69
2022/04/22 03:28:01;;;;;;;3.15;2.05;;;16.60;55.90;;;;;;5015603;28;20049;-69
2022/04/22 03:30:27;;;;;;;4.10;2.25;;;17.20;56.30;;;;;;5015211;28;20107;-69
2022/04/22 03:32:54;;;;;;;4.72;2.08;;;17.20;56.00;;;;;;5040843;28;20049;-69
2022/04/22 03:35:21;;;;;;;4.18;2.40;;;16.50;55.90;;;;;;5015246;28;20458;-69
2022/04/22 03:37:49;;;;;;;2.60;1.88;;;16.40;55.60;;;;;;5022485;28;20071;-70
2022/04/22 03:40:16;;;;;;;2.95;2.10;;;16.50;55.90;;;;;;5015253;28;20057;-69
2022/04/22 03:42:42;;;;;;;3.38;2.20;;;16.60;55.90;;;;;;5015035;28;20050;-69
2022/04/22 03:45:11;;;;;;;2.30;1.98;;;16.40;55.80;;;;;;5015233;28;20083;-69
2022/04/22 03:47:38;;;;;;;3.00;1.70;;;;;;;;;;5015547;28;20057;-69
2022/04/22 03:50:06;;;;;;;2.58;2.10;;;16.40;55.90;;;;;;5014830;28;20060;-70
2022/04/22 03:52:33;;;;;;;3.55;1.92;;;15.80;55.20;;;;;;5015050;28;20084;-69
2022/04/22 03:55:01;;;;;;;2.50;2.20;;;16.40;55.90;;;;;;5015103;28;20057;-69
2022/04/22 04:00:13;;;;;;;2.70;1.98;;;16.30;56.00;;;;;;5014604;28;20082;-69
2022/04/22 04:02:39;;;;;;;3.58;2.17;;;16.30;51.50;;;;;;5014828;28;20052;-69
2022/04/22 04:05:07;;;;;;;2.80;1.90;;;16.40;55.70;;;;;;5014995;28;20060;-69
2022/04/22 04:07:33;;;;;;;3.30;2.00;;;16.40;55.90;;;;;;5014755;28;20049;-69
2022/04/22 04:18:14;;;;;;;3.42;2.35;;;;;;;;;;5014567;28;20057;-69
2022/04/22 04:23:25;;;;;;;2.50;2.10;;;16.40;56.10;;;;;;5013977;28;20038;-69
2022/04/22 04:25:54;;;;;;;2.95;1.88;;;16.30;56.10;;;;;;4998121;28;20049;-69
2022/04/22 04:28:23;;;;;;;3.30;1.80;;;;;;;;;;5006439;28;20132;-69
2022/04/22 04:30:50;;;;;;;3.30;1.92;;;;;;;;;;5014489;28;20564;-70
2022/04/22 04:33:17;;;;;;;3.22;1.88;;;16.20;55.70;;;;;;5014200;28;20045;-69
2022/04/22 04:35:46;;;;;;;3.20;1.85;;;;;;;;;;5014604;28;20049;-69
2022/04/22 04:38:13;;;;;;;3.72;2.03;;;15.60;55.70;;;;;;5031902;28;20051;-69
2022/04/22 04:40:42;;;;;;;2.80;1.80;;;16.40;55.70;;;;;;5013966;28;20094;-70
2022/04/22 04:43:10;;;;;;;3.15;1.90;;;16.40;55.50;;;;;;5020126;28;20049;-69
2022/04/22 04:45:36;;;;;;;3.75;2.20;;;16.40;55.30;;;;;;5014190;28;20053;-69
2022/04/22 04:48:03;;;;;;;3.30;1.80;;;16.40;55.50;;;;;;5014611;28;20056;-69
2022/04/22 04:50:30;;;;;;;2.38;2.05;;;16.40;55.20;;;;;;5013495;28;20053;-69
2022/04/22 04:52:57;;;;;;;3.03;1.90;;;15.90;55.00;;;;;;5014461;28;20045;-69
2022/04/22 04:55:25;;;;;;;2.53;1.80;;;;;;;;;;5013937;28;20069;-69
2022/04/22 04:57:52;;;;;;;2.50;1.73;;;16.50;55.30;;;;;;5013623;28;20049;-69
2022/04/22 05:00:20;;;;;;;3.83;1.92;;;16.30;51.30;;;;;;5013899;28;20055;-69
2022/04/22 05:02:47;;;;;;;2.63;1.80;;;17.20;55.70;;;;;;5014193;28;20425;-69
2022/04/22 05:05:14;;;;;;;3.13;2.00;;;16.30;55.50;;;;;;5013982;28;20053;-70
2022/04/22 05:07:48;;;;;;;2.33;1.70;;;16.40;50.30;;;;;;5014146;28;20047;-70
2022/04/22 05:10:15;;;;;;;3.20;2.00;;;16.30;51.90;;;;;;5013396;28;20453;-70
2022/04/22 05:12:42;;;;;;;2.72;1.88;;;16.60;55.40;;;;;;5014209;28;20050;-69
2022/04/22 05:15:10;;;;;;;3.10;1.98;;;16.30;55.20;;;;;;5013385;28;20081;-69
2022/04/22 05:17:40;;;;;;;2.78;1.88;;;16.20;55.10;;;;;;5014075;28;20111;-69
2022/04/22 05:20:08;;;;;;;3.40;1.98;;;15.60;54.80;;;;;;5013669;28;20060;-70
2022/04/22 05:22:34;;;;;;;2.60;1.90;;;16.40;55.20;;;;;;5015354;28;20055;-69
2022/04/22 05:25:01;;;;;;;2.60;1.90;;;16.00;55.40;;;;;;5017884;28;20080;-69
2022/04/22 05:27:28;;;;;;;3.40;2.00;;;16.30;55.50;;;;;;5035227;28;20121;-69
2022/04/22 05:32:40;;;;;;;2.67;1.80;;;16.20;55.30;;;;;;5011009;28;20136;-69
2022/04/22 05:35:08;;;;;;;2.88;1.83;;;16.20;49.30;;;;;;5017701;28;20111;-70
2022/04/22 05:37:45;;;;;;;3.80;2.05;;;16.20;54.40;;;;;;5035185;28;20052;-69
2022/04/22 05:40:12;;;;;;;2.03;1.60;;;15.90;53.40;;;;;;5021157;28;20049;-70
2022/04/22 05:42:39;;;;;;;2.50;1.90;;;;;;;;;;5017427;28;20053;-69
2022/04/22 05:45:07;;;;;;;3.80;2.08;;;16.30;55.70;;;;;;5017268;28;20136;-69
2022/04/22 05:47:34;;;;;;;2.72;1.83;;;16.30;55.60;;;;;;5017445;28;20069;-70
2022/04/22 05:50:02;;;;;;;3.25;1.88;;;16.40;55.40;;;;;;5017353;28;20132;-69
2022/04/22 05:52:29;;;;;;;3.00;1.88;;;16.20;55.30;;;;;;5034883;28;20053;-69
2022/04/22 05:54:58;;;;;;;2.45;1.88;;;;;;;;;;5017479;28;20050;-69
2022/04/22 05:57:25;;;;;;;2.55;2.00;;;16.20;55.30;;;;;;5016458;28;20059;-69
2022/04/22 05:59:52;;;;;;;2.90;1.88;;;16.40;55.70;;;;;;5016028;28;20140;-70
2022/04/22 06:02:19;;;;;;;3.17;1.92;;;16.20;55.20;;;;;;5016802;28;20492;-69
2022/04/22 06:04:46;;;;;;;2.30;1.70;;;16.40;55.70;;;;;;5016574;28;20075;-69
2022/04/22 06:07:14;;;;;;;3.17;1.77;;;16.40;55.40;;;;;;5015745;28;20100;-69
2022/04/22 06:12:25;;;;;;;2.65;1.60;;;16.20;55.70;;;;;;5014891;28;20049;-70
2022/04/22 06:14:52;;;;;;;2.72;1.90;;;15.70;55.30;;;;;;5015829;28;20058;-69
2022/04/22 06:17:19;;;;;;;2.70;1.80;;;16.20;55.70;;;;;;5016391;28;20049;-70
2022/04/22 06:19:45;;;;;;;2.63;1.92;;;16.20;55.20;;;;;;5016626;28;20084;-69
2022/04/22 06:22:13;;;;;;;3.63;1.90;;;16.40;55.30;;;;;;5016815;28;20053;-69
2022/04/22 06:24:43;;;;;;;2.65;1.70;;;16.30;55.60;;;;;;5034390;28;20128;-69
2022/04/22 06:27:10;;;;;;;3.03;1.75;;;16.30;55.30;;;;;;5016860;28;20402;-69
2022/04/22 06:29:37;;;;;;;2.80;1.85;;;15.90;55.20;;;;;;5033784;28;20041;-70
2022/04/22 06:32:04;;;;;;;2.40;1.90;;;16.40;55.60;;;;;;5016987;28;20049;-69
2022/04/22 06:34:31;;;;;;;3.05;1.80;;;16.50;55.30;;;;;;5010333;28;20042;-69
2022/04/22 06:36:59;;;;;;;4.10;1.73;;;15.90;55.30;;;;;;5036554;28;20049;-69
2022/04/22 06:45:46;;;;;;;3.03;1.70;;;16.40;49.10;;;;;;5016569;28;20057;-69
2022/04/22 06:47:47;;;;;;;2.50;1.75;;;17.00;55.10;;;;;;5010739;28;20073;-70
2022/04/22 06:50:19;;;;;;;2.65;1.63;;;16.80;55.00;;;;;;5016091;28;20479;-69
2022/04/22 06:52:46;;;;;;;2.65;1.60;;;16.80;48.70;;;;;;5016180;28;20132;-70
2022/04/22 06:55:15;;;;;;;2.67;1.52;;;17.20;54.50;;;;;;5015925;28;20057;-70
2022/04/22 06:57:42;;;;;;;2.40;1.70;;;17.60;54.20;;;;;;5016496;28;20061;-70
2022/04/22 07:00:10;;;;;;;2.10;1.48;;;18.10;54.20;;;;;;5033464;28;20046;-69
2022/04/22 07:02:37;;;;;;;2.22;1.50;;;18.50;54.30;;;;;;5018534;28;20045;-69
2022/04/22 07:05:05;;;;;;;2.40;1.52;;;17.80;53.60;;;;;;5015045;28;20045;-69
2022/04/22 07:07:32;;;;;;;1.83;1.63;;;18.60;53.90;;;;;;5015840;28;20072;-70
2022/04/22 07:09:59;;;;;;;2.65;1.60;;;18.10;53.30;;;;;;5015796;28;20072;-69
2022/04/22 07:12:28;;;;;;;2.35;1.50;;;18.30;53.70;;;;;;5015915;28;20051;-69
2022/04/22 07:14:58;;;;;;;4.18;1.80;;;18.10;53.50;;;;;;5011203;28;20052;-69
2022/04/22 07:17:25;;;;;;;2.55;1.73;;;18.30;53.20;;;;;;5015276;28;20061;-70
2022/04/22 07:19:52;;;;;;;3.53;1.85;;;18.50;53.00;;;;;;5029378;28;20046;-70
2022/04/22 07:22:20;;;;;;;4.45;1.80;;;17.50;52.40;;;;;;4998340;28;20387;-69
2022/04/22 07:24:47;;;;;;;1.73;1.50;;;18.50;53.20;;;;;;4996262;28;20049;-70
2022/04/22 07:27:14;;;;;;;3.55;1.70;;;18.70;53.00;;;;;;5010645;28;20041;-70
2022/04/22 07:29:43;;;;;;;1.95;1.38;;;18.10;52.70;;;;;;4996198;28;20053;-70
2022/04/22 07:32:11;;;;;;;2.38;1.52;;;18.60;52.60;;;;;;5015128;28;20050;-70
2022/04/22 07:34:38;;;;;;;2.17;1.50;;;18.80;52.40;;;;;;5016194;28;20044;-70
2022/04/22 07:37:09;;;;;;;2.20;1.50;;;18.30;52.60;;;;;;5018436;28;20061;-70
2022/04/22 07:39:38;;;;;;;1.85;1.48;;;18.80;52.20;;;;;;5015307;28;20049;-67
2022/04/22 07:42:06;;;;;;;2.47;1.52;;;18.90;52.20;;;;;;5015508;28;20474;-66
2022/04/22 07:47:18;;;;;;;1.98;1.30;;;19.10;53.00;;;;;;5032928;28;20041;-68
2022/04/22 07:49:46;;;;;;;2.78;1.50;;;19.20;52.50;;;;;;5017807;28;20478;-69
2022/04/22 07:52:13;;;;;;;1.70;1.38;;;18.90;52.20;;;;;;5015182;28;20528;-69
2022/04/22 07:54:39;;;;;;;2.58;1.45;;;19.10;52.40;;;;;;5015502;28;20046;-69
2022/04/22 07:57:06;;;;;;;1.90;1.40;;;18.90;52.30;;;;;;5032535;28;20049;-69
2022/04/22 07:59:34;;;;;;;2.38;1.40;;;;;;;;;;5015179;28;20076;-71
2022/04/22 08:02:00;;;;;;;2.05;1.35;;;19.10;51.70;;;;;;5015260;28;20099;-71
2022/04/22 08:04:29;;;;;;;1.90;1.20;;;19.30;51.90;;;;;;5015027;28;20075;-71
2022/04/22 08:06:55;;;;;;;1.50;1.25;;;19.30;52.10;;;;;;5014924;28;20509;-71
2022/04/22 08:09:22;;;;;;;2.03;1.38;;;19.40;51.90;;;;;;5014547;28;20079;-70
2022/04/22 08:11:49;;;;;;;4.05;1.40;;;19.50;51.80;;;;;;4999022;28;20091;-70
2022/04/22 08:14:16;;;;;;;2.25;1.38;;;19.50;51.90;;;;;;5014293;28;20053;-70
2022/04/22 08:16:42;;;;;;;1.38;1.20;;;19.50;52.00;;;;;;5018411;28;20470;-70
2022/04/22 08:19:09;;;;;;;2.25;1.55;;;19.30;51.60;;;;;;5032086;28;20060;-70
2022/04/22 08:21:37;;;;;;;2.05;1.30;;;19.70;52.00;;;;;;5014370;28;20057;-71
2022/04/22 08:24:06;;;;;;;2.28;1.40;;;20.10;47.50;;;;;;5017963;28;20055;-71
2022/04/22 08:26:32;;;;;;;3.35;1.40;;;19.90;51.50;;;;;;5014381;28;20060;-69
2022/04/22 08:28:59;;;;;;;2.58;1.20;;;19.80;51.70;;;;;;5014885;28;20527;-69
2022/04/22 08:31:26;;;;;;;4.65;1.48;;;19.60;46.70;;;;;;5014169;28;20059;-68
2022/04/22 08:33:55;;;;;;;2.55;1.15;;;18.80;50.80;;;;;;5032013;28;20049;-71
2022/04/22 08:36:22;;;;;;;3.90;1.80;;;19.90;51.30;;;;;;5013854;28;20425;-71
2022/04/22 08:38:50;;;;;;;5.72;1.88;;;20.00;51.90;;;;;;5018308;28;20061;-71
2022/04/22 08:41:17;;;;;;;3.95;1.60;;;19.60;51.40;;;;;;5014549;28;20053;-72
2022/04/22 08:43:44;;;;;;;3.33;1.80;;;19.70;51.50;;;;;;5014470;28;20486;-72
2022/04/22 08:49:58;;;;;;;4.55;1.98;;;19.50;51.40;;;;;;5031612;28;20073;-72
2022/04/22 08:51:42;;;;;;;6.63;1.70;;;19.50;51.00;;;;;;5025393;28;20042;-72
2022/04/22 08:54:10;;;;;;;4.35;2.15;;;20.10;51.60;;;;;;5014900;28;20049;-71
2022/04/22 08:56:36;;;;;;;7.00;1.80;;;19.80;46.60;;;;;;5030932;28;20041;-71
2022/04/22 08:59:03;;;;;;;3.78;1.77;;;20.00;51.70;;;;;;5031279;28;20057;-73
2022/04/22 09:01:30;;;;;;;5.75;1.90;;;20.00;52.00;;;;;;5013676;28;20053;-72
2022/04/22 09:03:57;;;;;;;7.55;2.10;;;20.00;51.90;;;;;;5013541;28;20049;-71
2022/04/22 09:06:25;;;;;;;6.97;1.80;;;19.90;52.20;;;;;;5014491;28;20065;-71
2022/04/22 09:08:52;;;;;;;5.57;2.00;;;20.30;52.00;;;;;;5014487;28;20049;-71
2022/04/22 09:11:21;;;;;;;3.47;1.75;;;19.90;51.80;;;;;;5032707;28;20071;-71
2022/04/22 09:13:48;;;;;;;7.07;1.85;;;19.60;51.50;;;;;;5032088;28;20049;-71
2022/04/22 09:16:19;;;;;;;2.95;1.52;;;20.10;51.80;;;;;;5031613;28;20053;-72
2022/04/22 09:18:46;;;;;;;6.60;1.60;;;20.10;52.00;;;;;;5033068;28;20405;-71
2022/04/22 09:21:16;;;;;;;4.25;1.88;;;19.10;52.40;;;;;;5027421;28;20061;-70
2022/04/22 09:23:45;;;;;;;4.93;2.10;;;20.20;51.90;;;;;;5012818;28;20758;-71
2022/04/22 09:26:22;;;;;;;6.47;1.95;;;20.00;47.20;;;;;;5011464;28;20081;-71
2022/04/22 09:28:57;;;;;;;3.03;1.60;;;20.00;52.20;;;;;;5028944;28;20053;-71
2022/04/22 09:31:24;;;;;;;3.90;1.70;;;20.10;51.90;;;;;;5017701;28;20056;-71
2022/04/22 09:33:51;;;;;;;3.55;1.77;;;20.00;53.50;;;;;;5015287;28;20063;-72
2022/04/22 09:44:54;;;;;;;3.53;1.65;;;19.20;51.10;;;;;;5013310;28;20099;-72
2022/04/22 09:47:21;;;;;;;3.08;1.60;;;19.50;52.50;;;;;;5014047;28;20081;-71
2022/04/22 09:49:47;;;;;;;4.50;2.03;;;20.10;52.00;;;;;;5013612;28;20054;-72
2022/04/22 09:52:14;;;;;;;3.72;1.55;;;20.80;52.20;;;;;;5014320;28;20413;-71
2022/04/22 09:54:41;;;;;;;3.00;1.60;;;20.00;52.60;;;;;;5013663;28;20065;-72
2022/04/22 09:57:09;;;;;;;3.47;1.60;;;20.00;47.10;;;;;;5014079;28;20140;-73
2022/04/22 09:59:36;;;;;;;2.97;1.60;;;20.00;47.00;;;;;;5013621;28;20053;-71
2022/04/22 10:02:04;;;;;;;3.80;1.40;;;20.10;51.60;;;;;;5015624;28;20049;-72
2022/04/22 10:04:31;;;;;;;2.15;1.65;;;19.90;51.80;;;;;;5010586;28;20057;-72
2022/04/22 10:06:58;;;;;;;2.78;1.45;;;19.70;51.70;;;;;;5017855;28;20413;-71
2022/04/22 10:09:25;;;;;;;2.95;1.33;;;20.10;52.20;;;;;;5037092;28;20041;-72
2022/04/22 10:11:54;;;;;;;2.53;1.38;;;20.10;52.90;;;;;;5037062;28;20053;-72
2022/04/22 10:14:33;;;;;;;3.75;1.63;;;20.30;48.40;;;;;;5036816;28;20076;-72
2022/04/22 10:17:00;;;;;;;3.20;1.73;;;20.00;52.00;;;;;;5036803;28;20057;-72
2022/04/22 10:19:27;;;;;;;2.42;1.50;;;19.80;52.20;;;;;;5036932;28;20059;-72
2022/04/22 10:21:53;;;;;;;2.70;1.50;;;20.60;53.00;;;;;;5036878;28;20055;-72
2022/04/22 10:24:20;;;;;;;3.28;1.65;;;20.20;51.90;;;;;;5022175;28;20501;-72
2022/04/22 10:26:47;;;;;;;2.58;1.50;;;20.00;47.30;;;;;;5016958;28;20120;-72
2022/04/22 10:29:14;;;;;;;2.60;1.60;;;20.00;51.90;;;;;;5033252;28;20052;-71
2022/04/22 10:31:42;;;;;;;2.95;1.50;;;20.30;53.70;;;;;;5015997;28;20064;-72
2022/04/22 10:34:09;;;;;;;3.17;1.58;;;20.00;52.00;;;;;;5015415;28;20140;-72
2022/04/22 10:36:36;;;;;;;2.63;1.50;;;19.90;52.10;;;;;;5015817;28;20670;-72
2022/04/22 10:39:04;;;;;;;3.58;1.50;;;19.50;51.70;;;;;;5015837;28;20083;-72
2022/04/22 10:41:32;;;;;;;3.88;1.60;;;20.00;52.40;;;;;;5016969;28;20161;-72
2022/04/22 10:49:36;;;;;;;3.10;1.50;;;20.00;52.10;;;;;;5016771;28;20088;-72
2022/04/22 10:52:09;;;;;;;2.60;1.50;;;19.60;52.00;;;;;;5016666;28;20417;-72
2022/04/22 10:55:08;;;;;;;2.92;1.67;;;19.70;51.80;;;;;;5016749;28;20449;-72
2022/04/22 10:57:35;;;;;;;1.48;1.30;;;19.60;53.70;;;;;;5017834;28;20053;-72
2022/04/22 11:00:27;;;;;;;3.03;1.20;;;19.90;47.30;;;;;;5033910;28;20048;-71
2022/04/22 11:03:04;;;;;;;1.92;1.40;;;19.90;47.30;;;;;;5016479;28;20069;-71
2022/04/22 11:05:38;;;;;;;2.20;1.30;;;20.10;52.20;;;;;;5016553;28;20080;-72
2022/04/22 11:08:06;;;;;;;3.45;1.60;;;20.10;52.30;;;;;;5016548;28;20060;-72
2022/04/22 11:10:57;;;;;;;2.47;1.60;;;20.40;52.40;;;;;;5016303;28;20167;-72
2022/04/22 11:13:27;;;;;;;5.10;1.17;;;19.90;49.10;;;;;;5022452;28;20052;-72
2022/04/22 11:15:57;;;;;;;2.40;1.40;;;19.80;47.30;;;;;;5036087;28;20045;-71
2022/04/22 11:18:25;;;;;;;2.25;1.52;;;19.80;52.10;;;;;;5036155;28;20055;-71
2022/04/22 11:20:53;;;;;;;1.85;1.38;;;19.80;51.90;;;;;;5052342;28;20091;-71
2022/04/22 11:23:19;;;;;;;1.90;1.35;;;19.90;52.00;;;;;;5035917;28;20063;-72
2022/04/22 11:25:46;;;;;;;3.45;1.60;;;19.80;51.80;;;;;;5035680;28;20425;-72
2022/04/22 11:28:13;;;;;;;1.65;1.35;;;20.70;52.90;;;;;;5053698;28;20049;-72
2022/04/22 11:30:40;;;;;;;2.08;1.27;;;19.50;52.00;;;;;;5033789;28;20053;-72
2022/04/22 11:33:12;;;;;;;2.95;1.48;;;20.50;52.40;;;;;;5053318;28;20076;-72
2022/04/22 11:35:40;;;;;;;1.85;1.33;;;19.50;52.50;;;;;;5035380;28;20418;-72
2022/04/22 11:38:07;;;;;;;2.67;1.23;;;19.90;52.10;;;;;;5035765;28;20053;-72
2022/04/22 11:40:35;;;;;;;2.90;1.40;;;19.80;53.00;;;;;;5035280;28;20098;-72
2022/04/22 11:43:06;;;;;;;2.00;1.50;;;19.70;52.30;;;;;;5035752;28;20048;-72
2022/04/22 11:45:35;;;;;;;2.35;1.40;;;19.20;46.80;;;;;;5035390;28;20448;-72
2022/04/22 11:48:07;;;;;;;3.30;1.70;;;20.60;54.10;;;;;;5016288;28;20076;-72
2022/04/22 11:50:37;;;;;;;3.35;1.40;;;19.90;52.90;;;;;;5015286;28;20061;-72
2022/04/22 11:53:08;;;;;;;2.58;1.30;;;20.40;52.20;;;;;;5015740;28;20068;-72
2022/04/22 11:55:35;;;;;;;3.25;1.40;;;19.80;47.50;;;;;;5033147;28;20060;-72
2022/04/22 11:58:02;;;;;;;1.80;1.27;;;20.40;49.80;;;;;;5015310;28;20057;-72
2022/04/22 12:05:56;;;;;;;3.55;1.77;;;20.10;52.60;;;;;;5034694;28;20041;-72
2022/04/22 12:08:25;;;;;;;3.50;1.40;;;19.60;52.10;;;;;;5035106;28;20044;-71
2022/04/22 12:10:51;;;;;;;1.90;1.38;;;19.80;47.60;;;;;;5035054;28;20136;-72
2022/04/22 12:13:18;;;;;;;1.90;1.30;;;18.90;51.40;;;;;;5034973;28;20081;-72
2022/04/22 12:15:48;;;;;;;2.17;1.50;;;19.50;52.00;;;;;;5052874;28;20052;-72
2022/04/22 12:18:30;;;;;;;3.42;1.50;;;20.10;52.70;;;;;;5034726;28;20063;-72
2022/04/22 12:20:57;;;;;;;2.00;1.35;;;20.10;52.50;;;;;;5018586;28;20053;-72
2022/04/22 12:23:32;;;;;;;2.97;1.45;;;20.00;52.40;;;;;;5015259;28;20064;-72
2022/04/22 12:26:00;;;;;;;2.20;1.33;;;19.40;52.50;;;;;;5032528;28;20053;-72
2022/04/22 12:28:27;;;;;;;2.13;1.60;;;19.80;52.70;;;;;;5032570;28;20509;-72
2022/04/22 12:30:54;;;;;;;1.90;1.30;;;19.80;47.70;;;;;;5014148;28;20081;-72
2022/04/22 12:33:23;;;;;;;2.58;1.60;;;19.70;52.60;;;;;;5048111;28;20064;-72
2022/04/22 12:35:50;;;;;;;1.98;1.35;;;19.80;47.80;;;;;;4995283;28;20050;-72
2022/04/22 12:38:17;;;;;;;2.63;1.52;;;20.00;52.40;;;;;;5012885;28;20061;-72
2022/04/22 12:40:47;;;;;;;2.28;1.40;;;19.60;52.50;;;;;;4995043;28;20513;-72
2022/04/22 12:43:27;;;;;;;2.85;1.63;;;20.00;53.80;;;;;;4995133;28;20457;-72
2022/04/22 12:52:14;;;;;;;1.95;1.40;;;20.40;52.60;;;;;;5034656;28;20056;-72
2022/04/22 12:54:42;;;;;;;1.73;1.50;;;19.70;52.30;;;;;;5033616;28;20063;-72
2022/04/22 12:57:11;;;;;;;2.45;1.45;;;20.00;53.50;;;;;;5034127;28;20056;-72
2022/04/22 12:59:45;;;;;;;1.80;1.40;;;19.10;51.90;;;;;;5034290;28;20493;-72
2022/04/22 13:02:14;;;;;;;2.83;1.60;;;18.60;52.50;;;;;;5034041;28;20057;-72
2022/04/22 13:04:52;;;;;;;2.88;1.70;;;19.70;47.80;;;;;;5032312;28;20079;-72
2022/04/22 13:07:19;;;;;;;2.65;1.58;;;19.70;47.80;;;;;;5034159;28;20053;-72
2022/04/22 13:09:46;;;;;;;3.45;1.50;;;18.60;52.80;;;;;;5033952;28;20126;-72
2022/04/22 13:12:13;;;;;;;2.28;1.65;;;20.10;52.60;;;;;;5033894;28;20136;-72
2022/04/22 13:14:40;;;;;;;4.18;1.65;;;19.60;52.50;;;;;;5051861;28;20049;-72
2022/04/22 13:17:07;;;;;;;2.45;1.52;;;20.20;52.60;;;;;;5033433;28;20505;-72
2022/04/22 13:19:33;;;;;;;2.50;1.60;;;19.70;47.80;;;;;;5033725;28;20049;-72
2022/04/22 13:22:01;;;;;;;2.30;1.50;;;19.70;53.10;;;;;;5032298;28;20075;-72
2022/04/22 13:24:28;;;;;;;2.58;1.70;;;19.50;52.20;;;;;;5017696;28;20053;-72
2022/04/22 13:26:55;;;;;;;2.35;1.70;;;20.20;54.80;;;;;;5033710;28;20055;-72
2022/04/22 13:29:21;;;;;;;3.00;1.75;;;19.60;52.70;;;;;;5033944;28;20045;-72
2022/04/22 13:31:48;;;;;;;3.03;1.60;;;19.50;52.70;;;;;;5051966;28;20404;-72
2022/04/22 13:34:15;;;;;;;2.03;1.75;;;19.60;47.90;;;;;;5033839;28;20083;-72
2022/04/22 13:36:42;;;;;;;6.28;1.80;;;19.60;47.90;;;;;;5033543;28;20071;-72
2022/04/22 13:39:10;;;;;;;1.83;1.40;;;19.70;53.20;;;;;;5032248;28;20059;-72
2022/04/22 13:41:37;;;;;;;2.17;1.60;;;19.80;52.80;;;;;;5033596;28;20091;-71
2022/04/22 13:44:04;;;;;;;3.15;1.65;;;19.60;47.90;;;;;;5036039;28;20059;-71
2022/04/22 13:54:41;;;;;;;2.85;1.85;;;19.40;52.40;;;;;;5023663;28;20053;-71
2022/04/22 13:57:08;;;;;;;2.38;1.52;;;19.90;52.60;;;;;;5035440;28;20401;-71
2022/04/22 13:59:34;;;;;;;3.08;1.80;;;19.70;52.70;;;;;;5017522;28;20059;-71
2022/04/22 14:02:02;;;;;;;2.75;1.55;;;19.60;52.90;;;;;;5001437;28;20061;-72
2022/04/22 14:04:34;;;;;;;2.03;1.42;;;19.50;52.10;;;;;;5017868;28;20057;-72
2022/04/22 14:07:00;;;;;;;1.88;1.50;;;19.60;52.20;;;;;;5001620;28;20128;-72
2022/04/22 14:09:27;;;;;;;2.70;1.70;;;19.90;53.20;;;;;;5017684;28;20425;-71